createdAt,value
2023-03-13T12:18:20.589Z,17.70
2023-03-13T12:21:21.753Z,17.70
2023-03-13T12:24:14.753Z,17.90
2023-03-13T12:26:47.381Z,17.60
2023-03-13T12:29:39.276Z,17.50
2023-03-13T12:32:16.978Z,17.60
2023-03-13T12:35:09.947Z,17.60
2023-03-13T12:38:15.190Z,15.90
2023-03-13T12:41:08.916Z,17.80
2023-03-13T12:46:40.663Z,17.60
2023-03-13T12:53:46.552Z,15.40
2023-03-13T12:56:58.929Z,17.80
2023-03-13T12:59:52.235Z,18.10
2023-03-13T13:02:37.894Z,18.00
2023-03-13T13:05:12.167Z,18.00
2023-03-13T13:07:41.913Z,18.20
2023-03-13T13:10:36.355Z,18.10
2023-03-13T13:13:32.402Z,18.20
2023-03-13T13:16:05.057Z,18.10
2023-03-13T13:18:37.037Z,18.10
2023-03-13T13:21:24.263Z,18.20
2023-03-13T13:23:55.092Z,18.30
2023-03-13T13:27:30.843Z,18.30
2023-03-13T13:30:07.999Z,17.50
2023-03-13T13:32:42.709Z,18.20
2023-03-13T13:35:41.562Z,19.30
2023-03-13T13:38:37.930Z,18.10
2023-03-13T13:41:22.628Z,19.30
2023-03-13T13:44:13.605Z,20.20
2023-03-13T13:46:47.616Z,18.80
2023-03-13T13:49:19.343Z,18.60
2023-03-13T13:52:20.439Z,19.40
2023-03-13T13:54:57.906Z,19.50
2023-03-13T13:57:30.590Z,19.50
2023-03-13T14:00:10.951Z,19.90
2023-03-13T14:02:51.049Z,19.40
2023-03-13T14:05:27.944Z,19.20
2023-03-13T14:11:16.342Z,19.70
2023-03-13T14:13:44.577Z,20.40
2023-03-13T14:16:24.500Z,19.80
2023-03-13T14:18:55.822Z,19.90
2023-03-13T14:21:30.845Z,19.80
2023-03-13T14:24:03.762Z,20.20
2023-03-13T14:26:48.739Z,20.60
2023-03-13T14:29:21.806Z,21.00
2023-03-13T14:31:54.435Z,21.50
2023-03-13T14:34:24.769Z,22.00
2023-03-13T14:36:59.174Z,21.20
2023-03-13T14:39:58.470Z,21.40
2023-03-13T14:42:38.488Z,21.60
2023-03-13T14:45:16.276Z,21.80
2023-03-13T14:47:46.462Z,21.60
2023-03-13T14:50:18.412Z,23.60
2023-03-13T14:52:52.998Z,21.50
2023-03-13T14:55:40.917Z,21.40
2023-03-13T15:01:26.375Z,21.60
2023-03-13T15:03:55.741Z,21.80
2023-03-13T15:06:35.197Z,21.70
2023-03-13T15:09:18.276Z,21.60
2023-03-13T15:11:56.164Z,20.70
2023-03-13T15:14:34.684Z,20.90
2023-03-13T15:17:04.636Z,20.90
2023-03-13T15:19:34.453Z,20.80
2023-03-13T15:22:07.935Z,22.00
2023-03-13T15:24:36.915Z,20.30
2023-03-13T15:27:21.371Z,20.40
2023-03-13T15:32:50.531Z,19.80
2023-03-13T15:35:30.809Z,19.70
2023-03-13T15:38:03.200Z,19.50
2023-03-13T15:40:32.911Z,19.30
2023-03-13T15:43:02.969Z,19.20
2023-03-13T15:45:32.911Z,19.10
2023-03-13T15:48:05.618Z,19.00
2023-03-13T15:50:34.224Z,18.90
2023-03-13T15:53:04.812Z,19.00
2023-03-13T15:55:33.509Z,16.60
2023-03-13T15:58:04.199Z,18.90
2023-03-13T16:00:33.903Z,18.80
2023-03-13T16:03:02.668Z,18.60
2023-03-13T16:05:31.199Z,18.60
2023-03-13T16:07:59.451Z,18.80
2023-03-13T16:10:31.062Z,19.10
2023-03-13T16:13:00.929Z,19.40
2023-03-13T16:15:33.109Z,19.00
2023-03-13T16:18:02.846Z,19.40
2023-03-13T16:20:32.723Z,19.00
2023-03-13T16:23:04.608Z,18.80
2023-03-13T16:25:34.353Z,18.50
2023-03-13T16:28:07.568Z,18.60
2023-03-13T16:30:36.582Z,18.20
2023-03-13T16:33:05.852Z,18.00
2023-03-13T16:35:37.867Z,17.80
2023-03-13T16:38:08.447Z,17.70
2023-03-13T16:40:39.093Z,17.60
2023-03-13T16:43:08.815Z,17.70
2023-03-13T16:45:37.234Z,17.50
2023-03-13T16:48:06.353Z,17.40
2023-03-13T16:50:37.909Z,15.80
2023-03-13T16:55:52.203Z,17.00
2023-03-13T16:58:20.505Z,16.80
2023-03-13T17:01:04.249Z,16.80
2023-03-13T17:03:35.615Z,16.70
2023-03-13T17:06:03.892Z,16.60
2023-03-13T17:11:22.915Z,16.30
2023-03-13T17:13:53.600Z,16.10
2023-03-13T17:16:23.706Z,16.00
2023-03-13T17:18:55.292Z,15.80
2023-03-13T17:21:26.850Z,15.70
2023-03-13T17:23:55.133Z,15.60
2023-03-13T17:26:26.329Z,15.50
2023-03-13T17:28:56.589Z,15.30
2023-03-13T17:31:26.893Z,15.20
2023-03-13T17:33:55.504Z,15.20
2023-03-13T17:39:12.888Z,14.90
2023-03-13T17:41:42.661Z,14.80
2023-03-13T17:44:10.777Z,14.70
2023-03-13T17:46:42.338Z,14.60
2023-03-13T17:49:13.265Z,14.50
2023-03-13T17:51:44.521Z,14.50
2023-03-13T17:54:15.669Z,16.30
2023-03-13T17:57:23.868Z,14.80
2023-03-13T18:00:28.572Z,14.20
2023-03-13T18:02:57.317Z,14.10
2023-03-13T18:05:31.050Z,14.70
2023-03-13T18:08:00.536Z,14.10
2023-03-13T18:10:53.180Z,15.00
2023-03-13T18:13:28.025Z,14.50
2023-03-13T18:15:56.378Z,13.90
2023-03-13T18:18:27.578Z,13.90
2023-03-13T18:20:56.665Z,13.80
2023-03-13T18:23:25.604Z,13.80
2023-03-13T18:25:55.255Z,13.80
2023-03-13T18:28:27.864Z,13.70
2023-03-13T18:33:53.685Z,13.50
2023-03-13T18:36:22.407Z,13.60
2023-03-13T18:38:51.197Z,13.50
2023-03-13T18:41:24.148Z,13.40
2023-03-13T18:43:54.481Z,13.50
2023-03-13T18:46:26.788Z,13.40
2023-03-13T18:48:56.440Z,13.20
2023-03-13T18:51:27.635Z,13.20
2023-03-13T18:53:57.641Z,13.10
2023-03-13T18:56:29.554Z,13.10
2023-03-13T18:59:00.952Z,13.10
2023-03-13T19:01:32.561Z,13.00
2023-03-13T19:04:01.869Z,13.30
2023-03-13T19:06:33.495Z,12.90
2023-03-13T19:09:07.589Z,12.90
2023-03-13T19:15:04.543Z,12.60
2023-03-13T19:20:53.321Z,12.60
2023-03-13T19:23:23.110Z,12.40
2023-03-13T19:25:52.936Z,12.50
2023-03-13T19:28:24.562Z,12.50
2023-03-13T19:30:53.304Z,12.40
2023-03-13T19:33:22.399Z,12.40
2023-03-13T19:35:50.879Z,12.40
2023-03-13T19:38:20.750Z,12.30
2023-03-13T19:40:50.675Z,12.10
2023-03-13T19:43:19.302Z,12.30
2023-03-13T19:45:48.464Z,12.10
2023-03-13T19:48:16.698Z,12.10
2023-03-13T19:50:45.573Z,12.40
2023-03-13T19:53:14.614Z,12.10
2023-03-13T19:55:43.481Z,12.10
2023-03-13T19:58:13.326Z,12.00
2023-03-13T20:00:42.854Z,12.00
2023-03-13T20:03:13.834Z,12.00
2023-03-13T20:05:45.519Z,12.00
2023-03-13T20:08:21.090Z,11.90
2023-03-13T20:10:50.391Z,11.90
2023-03-13T20:13:40.421Z,11.80
2023-03-13T20:17:06.457Z,11.80
2023-03-13T20:20:05.826Z,12.40
2023-03-13T20:22:38.638Z,11.70
2023-03-13T20:25:09.372Z,11.60
2023-03-13T20:27:40.492Z,11.70
2023-03-13T20:30:13.166Z,13.00
2023-03-13T20:32:52.978Z,11.90
2023-03-13T20:35:30.688Z,11.40
2023-03-13T20:38:01.921Z,11.50
2023-03-13T20:40:34.610Z,11.50
2023-03-13T20:43:04.598Z,11.50
2023-03-13T20:45:37.578Z,11.30
2023-03-13T20:48:08.931Z,11.40
2023-03-13T20:50:37.343Z,11.90
2023-03-13T20:53:05.690Z,11.60
2023-03-13T20:55:35.655Z,11.30
2023-03-13T20:58:16.058Z,11.30
2023-03-13T21:01:06.052Z,11.40
2023-03-13T21:03:42.932Z,11.30
2023-03-13T21:06:15.154Z,11.30
2023-03-13T21:08:52.938Z,11.20
2023-03-13T21:11:59.212Z,11.20
2023-03-13T21:14:27.935Z,11.20
2023-03-13T21:16:57.761Z,11.20
2023-03-13T21:19:27.051Z,11.10
2023-03-13T21:21:57.630Z,11.10
2023-03-13T21:24:25.856Z,11.00
2023-03-13T21:26:55.135Z,11.00
2023-03-13T21:29:23.367Z,10.90
2023-03-13T21:31:53.178Z,10.90
2023-03-13T21:34:25.424Z,10.90
2023-03-13T21:36:53.782Z,10.80
2023-03-13T21:39:22.813Z,10.30
2023-03-13T21:41:51.408Z,11.20
2023-03-13T21:44:20.992Z,10.80
2023-03-13T21:46:49.187Z,10.80
2023-03-13T21:49:18.853Z,10.80
2023-03-13T21:51:48.650Z,10.90
2023-03-13T21:54:16.724Z,10.90
2023-03-13T21:56:44.913Z,11.00
2023-03-13T21:59:13.622Z,11.40
2023-03-13T22:01:42.371Z,11.10
2023-03-13T22:04:11.219Z,11.20
2023-03-13T22:06:41.234Z,11.30
2023-03-13T22:09:11.061Z,12.00
2023-03-13T22:11:39.117Z,9.00
2023-03-13T22:14:10.896Z,12.40
2023-03-13T22:16:41.771Z,11.40
